createdAt,value
2018-06-14T00:01:54.277Z,85.40
2018-06-14T00:04:21.990Z,85.30
2018-06-14T00:06:49.974Z,85.40
2018-06-14T00:09:18.059Z,85.90
2018-06-14T00:11:45.979Z,86.20
2018-06-14T00:14:13.680Z,85.90
2018-06-14T00:16:41.604Z,86.50
2018-06-14T00:19:09.266Z,86.50
2018-06-14T00:21:36.978Z,85.90
2018-06-14T00:24:04.702Z,85.50
2018-06-14T00:26:32.465Z,85.30
2018-06-14T00:29:00.216Z,85.60
2018-06-14T00:31:28.155Z,85.20
2018-06-14T00:33:55.867Z,85.10
2018-06-14T00:36:23.611Z,84.60
2018-06-14T00:38:51.475Z,84.60
2018-06-14T00:41:19.208Z,84.80
2018-06-14T00:43:47.994Z,84.40
2018-06-14T00:46:17.603Z,84.90
2018-06-14T00:48:48.594Z,84.80
2018-06-14T00:51:18.047Z,84.80
2018-06-14T00:53:46.072Z,85.30
2018-06-14T00:56:13.753Z,85.60
2018-06-14T00:58:41.544Z,85.70
2018-06-14T01:01:09.347Z,85.70
2018-06-14T01:03:37.068Z,85.80
2018-06-14T01:06:04.791Z,86.30
2018-06-14T01:08:32.498Z,86.20
2018-06-14T01:11:00.202Z,86.30
2018-06-14T01:13:27.828Z,86.70
2018-06-14T01:15:55.559Z,87.00
2018-06-14T01:18:23.315Z,87.70
2018-06-14T01:20:51.045Z,87.70
2018-06-14T01:23:19.445Z,87.20
2018-06-14T01:25:47.358Z,87.20
2018-06-14T01:28:17.287Z,87.00
2018-06-14T01:30:47.352Z,86.50
2018-06-14T01:33:16.291Z,86.70
2018-06-14T01:35:44.832Z,86.40
2018-06-14T01:38:18.932Z,86.70
2018-06-14T01:40:46.823Z,86.50
2018-06-14T01:43:16.994Z,86.80
2018-06-14T01:45:45.846Z,87.50
2018-06-14T01:48:13.663Z,87.20
2018-06-14T01:50:41.481Z,86.70
2018-06-14T01:53:09.155Z,86.50
2018-06-14T01:55:36.845Z,86.60
2018-06-14T01:58:04.736Z,86.70
2018-06-14T02:00:32.534Z,86.70
2018-06-14T02:03:00.309Z,86.30
2018-06-14T02:05:28.364Z,86.00
2018-06-14T02:07:56.107Z,86.00
2018-06-14T02:10:23.815Z,85.80
2018-06-14T02:12:51.547Z,85.60
2018-06-14T02:15:19.245Z,85.50
2018-06-14T02:17:46.934Z,86.50
2018-06-14T02:20:14.613Z,87.70
2018-06-14T02:22:42.323Z,87.70
2018-06-14T02:25:10.200Z,89.00
2018-06-14T02:27:37.985Z,89.00
2018-06-14T02:30:05.829Z,89.50
2018-06-14T02:32:33.485Z,89.70
2018-06-14T02:35:01.186Z,90.00
2018-06-14T02:37:28.870Z,90.00
2018-06-14T02:39:56.568Z,89.50
2018-06-14T02:42:24.403Z,88.40
2018-06-14T02:44:56.747Z,88.80
2018-06-14T02:47:26.498Z,89.00
2018-06-14T02:49:59.704Z,88.60
2018-06-14T02:52:32.777Z,89.00
2018-06-14T02:55:13.930Z,89.30
2018-06-14T02:57:42.746Z,89.10
2018-06-14T03:02:42.321Z,89.50
2018-06-14T03:05:15.571Z,89.60
2018-06-14T03:07:44.633Z,89.90
2018-06-14T03:10:14.219Z,90.00
2018-06-14T03:12:42.626Z,90.20
2018-06-14T03:15:16.107Z,90.30
2018-06-14T03:17:44.917Z,90.50
2018-06-14T03:20:15.111Z,90.30
2018-06-14T03:22:42.982Z,90.90
2018-06-14T03:25:15.014Z,91.00
2018-06-14T03:27:44.848Z,91.20
2018-06-14T03:30:15.487Z,91.30
2018-06-14T03:32:45.164Z,91.30
2018-06-14T03:35:15.186Z,91.10
2018-06-14T03:37:44.615Z,90.80
2018-06-14T03:40:15.652Z,90.60
2018-06-14T03:42:46.092Z,90.80
2018-06-14T03:45:28.604Z,91.00
2018-06-14T03:48:03.336Z,91.10
2018-06-14T03:50:34.446Z,90.90
2018-06-14T03:53:04.072Z,90.50
2018-06-14T03:55:34.757Z,90.50
2018-06-14T03:58:08.664Z,90.60
2018-06-14T04:00:46.422Z,90.20
2018-06-14T04:03:16.034Z,90.00
2018-06-14T04:05:47.262Z,89.00
2018-06-14T04:08:15.886Z,89.60
2018-06-14T04:10:46.112Z,88.40
2018-06-14T04:13:15.496Z,89.00
2018-06-14T04:15:45.494Z,88.80
2018-06-14T04:18:16.249Z,88.40
2018-06-14T04:20:46.365Z,90.30
2018-06-14T04:23:15.956Z,90.70
2018-06-14T04:25:45.853Z,90.50
2018-06-14T04:28:15.399Z,90.70
2018-06-14T04:30:45.993Z,90.80
2018-06-14T04:33:15.318Z,90.80
2018-06-14T04:35:46.277Z,90.90
2018-06-14T04:38:14.165Z,90.80
2018-06-14T04:40:45.888Z,90.60
2018-06-14T04:43:16.690Z,90.50
2018-06-14T04:45:45.203Z,90.40
2018-06-14T04:48:15.208Z,90.00
2018-06-14T04:50:45.506Z,89.40
2018-06-14T04:53:13.314Z,89.60
2018-06-14T04:55:41.761Z,89.40
2018-06-14T04:58:13.157Z,88.70
2018-06-14T05:00:40.994Z,87.80
2018-06-14T05:03:12.837Z,88.70
2018-06-14T05:05:40.713Z,87.40
2018-06-14T05:08:08.592Z,87.60
2018-06-14T05:10:36.515Z,87.10
2018-06-14T05:13:04.289Z,86.80
2018-06-14T05:15:32.252Z,86.80
2018-06-14T05:18:00.172Z,86.40
2018-06-14T05:20:27.958Z,85.60
2018-06-14T05:22:56.582Z,85.50
2018-06-14T05:25:25.898Z,85.20
2018-06-14T05:27:53.929Z,86.10
2018-06-14T05:30:27.794Z,84.10
2018-06-14T05:35:50.242Z,83.60
2018-06-14T05:38:18.173Z,82.90
2018-06-14T05:40:46.009Z,83.10
2018-06-14T05:43:15.557Z,82.60
2018-06-14T05:45:45.188Z,82.70
2018-06-14T05:48:14.726Z,82.90
2018-06-14T05:50:44.305Z,82.30
2018-06-14T05:53:16.405Z,82.00
2018-06-14T05:55:45.430Z,80.80
2018-06-14T05:58:15.088Z,78.80
2018-06-14T06:00:44.937Z,76.50
2018-06-14T06:03:14.827Z,77.10
2018-06-14T06:05:44.282Z,77.70
2018-06-14T06:08:12.492Z,75.30
2018-06-14T06:10:44.798Z,76.00
2018-06-14T06:13:14.097Z,73.50
2018-06-14T06:15:44.642Z,73.50
2018-06-14T06:18:14.824Z,73.50
2018-06-14T06:20:43.149Z,72.90
2018-06-14T06:23:12.207Z,73.10
2018-06-14T06:25:41.533Z,74.10
2018-06-14T06:28:11.663Z,73.70
2018-06-14T06:30:41.205Z,72.00
2018-06-14T06:33:12.917Z,72.50
2018-06-14T06:35:40.814Z,72.70
2018-06-14T07:10:18.638Z,60.90
2018-06-14T07:12:46.504Z,61.10
2018-06-14T07:20:57.971Z,58.40
2018-06-14T07:23:25.809Z,57.00
2018-06-14T07:31:48.126Z,56.70
2018-06-14T07:41:03.834Z,53.70
2018-06-14T07:43:31.957Z,54.30
2018-06-14T07:46:00.492Z,51.90
2018-06-14T07:48:45.092Z,47.80
2018-06-14T07:54:15.343Z,49.10
2018-06-14T07:57:17.905Z,50.40
2018-06-14T08:02:46.464Z,50.70
2018-06-14T08:05:45.894Z,50.30
2018-06-14T08:08:16.999Z,51.10
2018-06-14T08:18:46.026Z,50.30
2018-06-14T08:29:23.979Z,52.40
2018-06-14T08:31:51.896Z,51.40
2018-06-14T08:34:19.840Z,51.30
2018-06-14T08:39:29.218Z,50.30
2018-06-14T08:42:07.291Z,49.70
2018-06-14T08:44:35.385Z,50.60
2018-06-14T08:47:03.195Z,50.40
2018-06-14T08:49:41.342Z,49.70
2018-06-14T08:52:18.888Z,49.50
2018-06-14T08:54:47.854Z,48.20
2018-06-14T08:57:17.205Z,48.40
2018-06-14T08:59:48.600Z,47.30
2018-06-14T09:02:18.626Z,45.20
2018-06-14T09:10:46.979Z,42.60
2018-06-14T09:13:18.125Z,43.10
2018-06-14T09:15:56.250Z,43.80
2018-06-14T09:18:29.442Z,42.50
2018-06-14T09:20:57.144Z,41.50
2018-06-14T09:23:25.215Z,42.70
2018-06-14T09:25:52.883Z,41.90
2018-06-14T09:28:20.595Z,41.10
2018-06-14T09:30:48.385Z,41.20
2018-06-14T09:33:16.720Z,41.70
2018-06-14T09:35:44.541Z,42.50
2018-06-14T09:38:12.372Z,42.00
2018-06-14T09:40:40.125Z,42.80
2018-06-14T09:43:08.918Z,42.60
2018-06-14T09:45:36.762Z,43.10
2018-06-14T09:48:04.447Z,44.60
2018-06-14T09:50:32.137Z,43.70
2018-06-14T09:52:59.766Z,44.80
2018-06-14T09:55:28.198Z,44.00
2018-06-14T09:57:55.939Z,40.90
2018-06-14T10:00:23.630Z,42.60
2018-06-14T10:02:51.169Z,42.00
2018-06-14T10:05:19.297Z,38.90
2018-06-14T10:07:46.990Z,40.60
2018-06-14T10:10:14.762Z,39.50
2018-06-14T10:12:42.675Z,39.70
2018-06-14T10:15:10.328Z,39.00
2018-06-14T10:17:38.194Z,38.70
2018-06-14T10:20:05.838Z,39.10
2018-06-14T10:22:33.514Z,37.90
2018-06-14T10:25:01.243Z,38.30
2018-06-14T10:27:28.888Z,38.70
2018-06-14T10:29:57.591Z,39.30
2018-06-14T10:32:25.337Z,39.40
2018-06-14T10:34:53.035Z,36.90
2018-06-14T10:37:20.970Z,38.60
2018-06-14T10:39:48.668Z,36.90
2018-06-14T10:42:16.465Z,36.30
2018-06-14T10:44:44.108Z,39.00
2018-06-14T10:47:15.330Z,38.30
2018-06-14T10:49:43.050Z,39.50
2018-06-14T10:52:10.746Z,39.50
2018-06-14T10:54:38.455Z,38.20
2018-06-14T10:57:06.154Z,38.90
2018-06-14T10:59:33.851Z,39.10
2018-06-14T11:02:01.478Z,37.30
2018-06-14T11:04:29.098Z,36.80
2018-06-14T11:06:57.060Z,38.60
2018-06-14T11:09:24.760Z,37.00
2018-06-14T11:12:02.404Z,38.50
2018-06-14T11:14:30.413Z,37.30
2018-06-14T11:16:58.294Z,36.10
2018-06-14T11:19:26.792Z,36.30
2018-06-14T11:21:54.651Z,37.00
2018-06-14T11:24:22.643Z,40.70
2018-06-14T11:26:50.388Z,40.80
2018-06-14T11:29:18.264Z,41.00
2018-06-14T11:31:46.269Z,40.70
2018-06-14T11:34:14.802Z,41.40
2018-06-14T11:36:45.318Z,40.60
2018-06-14T11:39:17.216Z,41.30
2018-06-14T11:41:46.530Z,40.70
2018-06-14T11:44:15.035Z,39.20
2018-06-14T11:46:46.627Z,40.40
2018-06-14T11:49:17.361Z,42.40
2018-06-14T11:51:46.102Z,43.00
2018-06-14T11:54:15.069Z,42.60
2018-06-14T11:56:49.945Z,42.90
2018-06-14T11:59:18.042Z,43.60
2018-06-14T12:01:46.407Z,44.70
2018-06-14T12:04:15.220Z,43.50
2018-06-14T12:06:46.670Z,43.60
2018-06-14T12:09:15.603Z,43.00
2018-06-14T12:11:50.483Z,44.30
2018-06-14T12:14:19.123Z,43.60
2018-06-14T12:16:47.562Z,44.50
2018-06-14T12:19:18.783Z,42.80
2018-06-14T12:21:46.561Z,42.40
2018-06-14T12:24:15.695Z,41.40
2018-06-14T12:26:44.676Z,42.00
2018-06-14T12:29:15.289Z,43.40
2018-06-14T12:31:44.272Z,43.80
2018-06-14T12:34:17.172Z,44.00
2018-06-14T12:36:47.572Z,42.20
2018-06-14T12:39:19.017Z,41.60
2018-06-14T12:41:47.919Z,42.10
2018-06-14T12:44:18.203Z,43.20
2018-06-14T12:46:47.141Z,43.50
2018-06-14T12:49:18.500Z,41.70
2018-06-14T12:51:46.353Z,42.70
2018-06-14T12:54:14.209Z,41.70
2018-06-14T12:56:42.033Z,40.60
2018-06-14T12:59:09.731Z,42.30
2018-06-14T13:01:37.814Z,41.10
2018-06-14T13:04:05.550Z,42.60
2018-06-14T13:06:33.303Z,42.30
2018-06-14T13:09:01.016Z,43.80
2018-06-14T13:11:28.742Z,43.20
2018-06-14T13:13:56.437Z,43.60
2018-06-14T13:16:24.275Z,42.30
2018-06-14T13:18:52.326Z,44.40
2018-06-14T13:21:21.933Z,44.10
2018-06-14T13:23:54.213Z,43.50
2018-06-14T13:26:23.128Z,43.50
2018-06-14T13:28:58.272Z,44.40
2018-06-14T13:54:38.756Z,43.90
2018-06-14T13:57:07.427Z,44.40
2018-06-14T13:59:35.347Z,44.70
2018-06-14T14:02:03.465Z,45.00
2018-06-14T14:04:33.225Z,43.90
2018-06-14T14:07:06.867Z,43.10
2018-06-14T14:09:36.173Z,42.80
2018-06-14T14:12:06.333Z,43.90
2018-06-14T14:14:34.613Z,43.50
2018-06-14T14:17:03.602Z,43.40
2018-06-14T14:19:31.569Z,42.80
2018-06-14T14:22:00.966Z,43.20
2018-06-14T14:24:29.653Z,43.20
2018-06-14T14:26:57.553Z,43.40
2018-06-14T14:29:26.577Z,44.90
2018-06-14T14:31:58.562Z,45.90
2018-06-14T14:34:28.065Z,46.00
2018-06-14T14:36:58.430Z,45.90
2018-06-14T14:39:29.385Z,48.00
2018-06-14T14:41:58.198Z,47.40
2018-06-14T14:44:26.601Z,46.90
2018-06-14T14:46:54.381Z,48.20
2018-06-14T14:49:22.536Z,48.20
2018-06-14T14:51:50.388Z,47.50
2018-06-14T14:54:19.018Z,48.50
2018-06-14T14:56:48.224Z,48.00
2018-06-14T14:59:17.624Z,47.80
2018-06-14T15:01:45.895Z,46.80
2018-06-14T15:04:15.844Z,46.40
2018-06-14T15:06:47.922Z,45.50
2018-06-14T15:09:17.705Z,44.50
2018-06-14T15:11:46.216Z,45.30
2018-06-14T15:14:14.929Z,45.40
2018-06-14T15:16:45.745Z,45.20
2018-06-14T15:19:13.817Z,45.50
2018-06-14T15:21:42.622Z,44.80
2018-06-14T15:24:11.961Z,44.90
2018-06-14T15:26:42.605Z,44.30
2018-06-14T15:29:15.133Z,45.60
2018-06-14T15:31:47.106Z,45.40
2018-06-14T15:34:16.317Z,45.10
2018-06-14T15:36:44.371Z,46.00
2018-06-14T15:39:14.038Z,45.20
2018-06-14T15:41:44.211Z,45.10
2018-06-14T15:44:13.120Z,46.30
2018-06-14T15:46:43.260Z,46.50
2018-06-14T15:49:13.052Z,46.40
2018-06-14T15:51:44.471Z,46.60
2018-06-14T15:54:15.467Z,46.50
2018-06-14T15:56:47.832Z,46.90
2018-06-14T15:59:16.937Z,46.30
2018-06-14T16:01:45.434Z,46.20
2018-06-14T16:04:15.774Z,46.60
2018-06-14T16:06:46.587Z,45.50
2018-06-14T16:09:18.557Z,46.10
2018-06-14T16:11:46.450Z,45.90
2018-06-14T16:14:15.758Z,46.20
2018-06-14T16:16:44.641Z,46.70
2018-06-14T16:19:15.907Z,47.60
2018-06-14T16:21:45.085Z,46.40
2018-06-14T16:24:15.867Z,46.50
2018-06-14T16:26:46.129Z,46.80
2018-06-14T16:29:16.301Z,47.60
2018-06-14T16:31:46.758Z,47.10
2018-06-14T16:34:16.890Z,47.40
2018-06-14T16:36:45.284Z,46.80
2018-06-14T16:39:16.848Z,47.70
2018-06-14T16:41:45.210Z,46.90
2018-06-14T16:44:15.082Z,47.10
2018-06-14T16:46:46.396Z,48.70
2018-06-14T16:49:16.246Z,48.70
2018-06-14T16:51:45.170Z,48.70
2018-06-14T16:54:14.413Z,48.20
2018-06-14T17:20:15.617Z,50.90
2018-06-14T17:31:25.041Z,50.40
2018-06-14T17:34:17.924Z,50.60
2018-06-14T17:39:46.250Z,51.10
2018-06-14T17:42:19.242Z,51.30
2018-06-14T17:44:47.848Z,51.80
2018-06-14T17:47:17.069Z,51.80
2018-06-14T17:49:47.875Z,52.50
2018-06-14T17:52:17.944Z,52.40
2018-06-14T17:54:46.509Z,52.90
2018-06-14T17:57:16.710Z,53.60
2018-06-14T17:59:48.139Z,53.60
2018-06-14T18:02:19.489Z,53.20
2018-06-14T18:04:47.480Z,53.60
2018-06-14T18:07:16.810Z,54.20
2018-06-14T18:09:46.714Z,54.00
2018-06-14T18:17:15.919Z,53.80
2018-06-14T18:22:33.180Z,54.90
2018-06-14T18:25:14.506Z,55.50
2018-06-14T18:27:47.709Z,55.40
2018-06-14T18:30:16.275Z,55.80
2018-06-14T18:32:47.319Z,56.40
2018-06-14T18:48:11.727Z,56.70
2018-06-14T18:50:46.186Z,57.00
2018-06-14T18:53:15.961Z,57.50
2018-06-14T19:03:18.325Z,59.60
2018-06-14T19:05:46.361Z,60.70
2018-06-14T19:08:14.169Z,61.00
2018-06-14T19:10:41.968Z,62.50
2018-06-14T19:13:09.685Z,63.00
2018-06-14T19:15:37.364Z,63.50
2018-06-14T19:18:04.980Z,63.30
2018-06-14T19:20:32.685Z,64.20
2018-06-14T19:23:00.471Z,64.10
2018-06-14T19:25:28.307Z,64.50
2018-06-14T19:27:55.954Z,65.00
2018-06-14T19:30:23.643Z,64.60
2018-06-14T19:32:51.467Z,66.30
2018-06-14T19:35:19.133Z,66.90
2018-06-14T19:37:46.919Z,68.50
2018-06-14T19:40:14.602Z,68.80
2018-06-14T19:42:42.273Z,68.80
2018-06-14T19:45:10.075Z,69.10
2018-06-14T19:47:37.733Z,69.50
2018-06-14T19:50:05.474Z,68.70
2018-06-14T19:52:33.130Z,70.10
2018-06-14T19:55:00.815Z,70.50
2018-06-14T19:57:28.450Z,71.20
2018-06-14T19:59:56.065Z,68.60
2018-06-14T20:02:23.666Z,71.40
2018-06-14T20:04:51.386Z,70.00
2018-06-14T20:07:19.015Z,68.00
2018-06-14T20:09:46.675Z,68.10
2018-06-14T20:12:14.611Z,69.20
2018-06-14T20:14:42.208Z,69.20
2018-06-14T20:17:09.857Z,67.80
2018-06-14T20:19:37.656Z,69.60
2018-06-14T20:22:05.301Z,72.50
2018-06-14T20:24:32.975Z,73.90
2018-06-14T20:27:00.782Z,74.30
2018-06-14T20:29:28.414Z,74.20
2018-06-14T20:31:56.191Z,72.50
2018-06-14T20:34:23.782Z,71.20
2018-06-14T20:36:51.401Z,69.30
2018-06-14T20:39:18.988Z,69.30
2018-06-14T20:41:46.682Z,70.00
2018-06-14T20:44:14.274Z,69.10
2018-06-14T20:46:41.940Z,68.10
2018-06-14T20:49:09.683Z,67.70
2018-06-14T20:51:37.469Z,70.70
2018-06-14T20:54:05.038Z,71.70
2018-06-14T20:56:32.651Z,71.30
2018-06-14T20:59:00.322Z,70.60
2018-06-14T21:01:30.169Z,69.80
2018-06-14T21:04:01.245Z,69.90
2018-06-14T21:06:28.953Z,68.50
2018-06-14T21:08:56.845Z,69.70
2018-06-14T21:11:24.519Z,69.30
2018-06-14T21:13:52.233Z,70.00
2018-06-14T21:16:20.058Z,69.80
2018-06-14T21:18:47.742Z,71.10
2018-06-14T21:21:15.502Z,70.30
2018-06-14T21:23:43.187Z,69.80
2018-06-14T21:26:10.959Z,69.80
2018-06-14T21:28:39.018Z,69.90
2018-06-14T21:31:06.771Z,70.70
2018-06-14T21:33:34.599Z,70.70
2018-06-14T21:36:02.419Z,70.70
2018-06-14T21:38:30.257Z,70.20
2018-06-14T21:40:58.062Z,70.60
2018-06-14T21:43:25.840Z,71.60
2018-06-14T21:45:53.647Z,74.60
2018-06-14T21:48:21.380Z,76.10
2018-06-14T21:50:49.198Z,76.80
2018-06-14T21:53:17.270Z,76.80
2018-06-14T21:55:45.029Z,77.40
2018-06-14T21:58:12.802Z,78.50
2018-06-14T22:00:40.656Z,78.70
2018-06-14T22:03:13.826Z,79.10
2018-06-14T22:05:41.634Z,77.30
2018-06-14T22:08:09.302Z,75.70
2018-06-14T22:10:37.211Z,72.30
2018-06-14T22:13:04.963Z,71.70
2018-06-14T22:15:32.714Z,72.00
2018-06-14T22:18:00.340Z,71.80
2018-06-14T22:20:28.019Z,71.50
2018-06-14T22:22:56.052Z,71.70
2018-06-14T22:25:23.719Z,72.10
2018-06-14T22:27:53.329Z,72.10
2018-06-14T22:30:21.035Z,72.60
2018-06-14T22:34:55.247Z,73.30
2018-06-14T22:37:23.007Z,74.20
2018-06-14T22:39:50.958Z,77.60
2018-06-14T22:42:18.753Z,77.30
2018-06-14T22:44:46.477Z,81.40
2018-06-14T22:47:14.234Z,81.00
2018-06-14T22:49:41.947Z,81.10
2018-06-14T22:53:16.987Z,82.60
2018-06-14T22:55:44.659Z,84.10
2018-06-14T22:58:12.333Z,85.10
2018-06-14T23:01:49.851Z,85.00
2018-06-14T23:04:25.051Z,87.30
2018-06-14T23:06:53.631Z,88.60
2018-06-14T23:10:26.920Z,90.30
2018-06-14T23:12:55.637Z,87.60
2018-06-14T23:15:23.378Z,89.00
2018-06-14T23:17:51.343Z,90.20
2018-06-14T23:20:20.364Z,90.20
2018-06-14T23:22:49.793Z,90.20
2018-06-14T23:25:18.301Z,90.10
2018-06-14T23:27:47.109Z,91.00
2018-06-14T23:30:15.472Z,91.00
2018-06-14T23:32:43.233Z,91.10
2018-06-14T23:35:11.075Z,91.30
2018-06-14T23:37:38.686Z,91.40
2018-06-14T23:40:06.259Z,91.40
2018-06-14T23:42:33.964Z,91.70
2018-06-14T23:45:01.625Z,91.30
2018-06-14T23:47:29.239Z,91.30
2018-06-14T23:49:57.190Z,91.50
2018-06-14T23:52:24.886Z,91.10
2018-06-14T23:54:52.539Z,90.80
2018-06-14T23:57:25.884Z,91.30
2018-06-14T23:59:53.514Z,90.80
